Provisional Data: Apalachin Creek near Apalachin, NY


Please select a monitoring station.
Please select start date.
Please select start date.

Toggle Unit: C/F Toggle Unit: C/F
Sample Time Temperature (C) Temperature (F) Specific Conductivity (mS/cm) pH   Turbidity (NTU+) DO (mg/L)
1/12/2021 12:00:00 AM 1.05 33.89 0.142 7.05 29.86 13.36
1/12/2021 12:15:00 AM 1.06 33.908 0.143 7.02 29.72 13.31
1/12/2021 12:30:00 AM 1.06 33.908 0.143 7.03 29.58 13.41
1/12/2021 12:45:00 AM 1.06 33.908 0.143 7.06 29.62 13.45
1/12/2021 1:00:00 AM 1.07 33.926 0.143 7.06 29.32 13.46
1/12/2021 1:15:00 AM 1.08 33.944 0.143 7.06 29.56 13.46
1/12/2021 1:30:00 AM 1.08 33.944 0.143 7.06 29.22 13.4
1/12/2021 1:45:00 AM 1.09 33.962 0.143 7.06 29.77 13.41
1/12/2021 2:00:00 AM 1.09 33.962 0.143 7.06 29.3 13.44
1/12/2021 2:15:00 AM 1.09 33.962 0.143 7.05 29.73 13.41
1/12/2021 2:30:00 AM 1.09 33.962 0.143 7.05 29.3 13.43
1/12/2021 2:45:00 AM 1.09 33.962 0.143 7.05 29.59 13.31
1/12/2021 3:00:00 AM 1.09 33.962 0.143 7.07 29.43 13.38
1/12/2021 3:15:00 AM 1.09 33.962 0.143 7.09 29.16 13.42
1/12/2021 3:30:00 AM 1.09 33.962 0.143 7.04 29.96 13.43
1/12/2021 3:45:00 AM 1.09 33.962 0.143 7.08 29.62 13.43
1/12/2021 4:00:00 AM 1.09 33.962 0.143 7.06 29.23 13.35
1/12/2021 4:15:00 AM 1.09 33.962 0.143 7.06 29.35 13.36
1/12/2021 4:30:00 AM 1.09 33.962 0.143 7.06 29.5 13.36
1/12/2021 4:45:00 AM 1.09 33.962 0.143 7.07 29.21 13.36
1/12/2021 5:00:00 AM 1.08 33.944 0.143 7.07 29.79 13.37
1/12/2021 5:15:00 AM 1.08 33.944 0.143 7.07 29.44 13.41
1/12/2021 5:30:00 AM 1.08 33.944 0.143 7.05 29.68 13.37
1/12/2021 5:45:00 AM 1.08 33.944 0.143 7.07 29.41 13.38
1/12/2021 6:00:00 AM 1.08 33.944 0.143 7.01 29.29 13.36
1/12/2021 6:15:00 AM 1.08 33.944 0.143 7.05 29.22 13.36
1/12/2021 6:30:00 AM 1.08 33.944 0.143 7.06 29.24 13.36
1/12/2021 6:45:00 AM 1.08 33.944 0.143 7.06 29.26 13.35
1/12/2021 7:00:00 AM 1.07 33.926 0.143 7.05 29.19 13.36
1/12/2021 7:15:00 AM 1.07 33.926 0.143 7.06 29.21 13.34
1/12/2021 7:30:00 AM 1.07 33.926 0.143 7.07 29.4 13.3
1/12/2021 7:45:00 AM 1.07 33.926 0.143 7.07 29.08 13.33
1/12/2021 8:00:00 AM 1.08 33.944 0.143 7.06 29.13 13.31
1/12/2021 8:15:00 AM 1.08 33.944 0.143 7.06 29.04 13.3
1/12/2021 8:30:00 AM 1.09 33.962 0.143 7.06 28.96 13.31
1/12/2021 8:45:00 AM 1.11 33.998 0.143 7.04 28.96 13.32
1/12/2021 9:00:00 AM 1.13 34.034 0.143 7.06 29.15 13.24
1/12/2021 9:15:00 AM 1.15 34.07 0.143 7.01 29.05 13.13
1/12/2021 9:30:00 AM 1.17 34.106 0.143 7.05 29.24 13.3
1/12/2021 9:45:00 AM 1.2 34.16 0.143 7.05 29.4 13.21
1/12/2021 10:00:00 AM 1.23 34.214 0.143 7.05 29.1 13.22
1/12/2021 10:15:00 AM 1.27 34.286 0.143 7.06 29.02 13.26
1/12/2021 10:30:00 AM 1.32 34.376 0.143 7.02 29.25 13.29
1/12/2021 10:45:00 AM 1.38 34.484 0.143 7.07 29.15 13.27
1/12/2021 11:00:00 AM 1.45 34.61 0.143 7.09 29.1 13.31
1/12/2021 11:15:00 AM 1.48 34.664 0.143 7.08 29.22 13.22
1/12/2021 11:30:00 AM 1.52 34.736 0.143 7.07 29.13 13.24
1/12/2021 11:45:00 AM 1.56 34.808 0.143 7.08 29.11 13.13
1/12/2021 12:00:00 PM 1.61 34.898 0.143 7.08 28.98 13.13
1/12/2021 12:15:00 PM 1.64 34.952 0.143 7.08 29.16 13.09
1/12/2021 12:30:00 PM 1.66 34.988 0.143 7.05 29.17 13.08
1/12/2021 12:45:00 PM 1.69 35.042 0.143 7.06 29.18 12.99
1/12/2021 1:00:00 PM 1.72 35.096 0.143 7.07 29.01 13.1
1/12/2021 1:15:00 PM 1.74 35.132 0.143 7.04 29.04 12.98
1/12/2021 1:30:00 PM 1.77 35.186 0.143 7.01 29.1 12.84
1/12/2021 1:45:00 PM 1.81 35.258 0.143 7.05 29.29 13.01
1/12/2021 2:00:00 PM 1.83 35.294 0.143 7.06 29.04 13.02
1/12/2021 2:15:00 PM 1.86 35.348 0.143 7.06 28.97 13
1/12/2021 2:30:00 PM 1.89 35.402 0.143 7.06 29.23 12.97
1/12/2021 2:45:00 PM 1.91 35.438 0.143 7.05 28.92 12.98
1/12/2021 3:00:00 PM 1.92 35.456 0.143 7.05 28.98 12.91
1/12/2021 3:15:00 PM 1.93 35.474 0.143 7.05 28.91 12.79
1/12/2021 3:30:00 PM 1.94 35.492 0.143 7.07 28.98 12.89
1/12/2021 3:45:00 PM 1.93 35.474 0.143 7.06 28.99 12.93
1/12/2021 4:00:00 PM 1.93 35.474 0.143 7.05 29.06 12.74
1/12/2021 4:15:00 PM 1.92 35.456 0.143 7.05 29.11 12.86
1/12/2021 4:30:00 PM 1.89 35.402 0.143 7.05 29.11 12.85
1/12/2021 4:45:00 PM 1.88 35.384 0.143 7.06 29.03 12.86
1/12/2021 5:00:00 PM 1.86 35.348 0.143 7.03 28.96 12.81
1/12/2021 5:15:00 PM 1.84 35.312 0.143 7.04 29.21 12.8
1/12/2021 5:30:00 PM 1.82 35.276 0.143 7.03 29.05 12.8
1/12/2021 5:45:00 PM 1.8 35.24 0.143 7.04 29 12.85
1/12/2021 6:00:00 PM 1.78 35.204 0.143 7.06 29.11 12.95
1/12/2021 6:15:00 PM 1.76 35.168 0.143 7.03 29.07 12.96
1/12/2021 6:30:00 PM 1.74 35.132 0.143 7.05 29.16 12.97
1/12/2021 6:45:00 PM 1.73 35.114 0.143 7.08 29.31 13.02
1/12/2021 7:00:00 PM 1.72 35.096 0.143 7.07 29.28 12.99
1/12/2021 7:15:00 PM 1.7 35.06 0.143 7.06 29.48 12.87
1/12/2021 7:30:00 PM 1.69 35.042 0.143 7.05 29.22 12.9
1/12/2021 7:45:00 PM 1.68 35.024 0.143 7.05 29.21 12.9
1/12/2021 8:00:00 PM 1.67 35.006 0.143 7.05 29.12 12.94
1/12/2021 8:15:00 PM 1.66 34.988 0.143 7.03 29.21 12.93
1/12/2021 8:30:00 PM 1.65 34.97 0.143 7.05 29.14 13
1/12/2021 8:45:00 PM 1.64 34.952 0.143 7.06 29.26 12.98
1/12/2021 9:00:00 PM 1.63 34.934 0.143 7.04 29.29 12.86
1/12/2021 9:15:00 PM 1.62 34.916 0.143 7.03 29.22 12.84
1/12/2021 9:30:00 PM 1.61 34.898 0.143 7.03 29.31 13
1/12/2021 9:45:00 PM 1.61 34.898 0.143 7 29.04 12.93
1/12/2021 10:00:00 PM 1.6 34.88 0.143 7.04 29.13 12.92
1/12/2021 10:15:00 PM 1.59 34.862 0.143 7.03 29.06 13
1/12/2021 10:30:00 PM 1.59 34.862 0.143 7.02 29.08 12.83
1/12/2021 10:45:00 PM 1.58 34.844 0.143 7.04 29.1 12.87
1/12/2021 11:00:00 PM 1.58 34.844 0.143 7.04 29.21 12.86
1/12/2021 11:15:00 PM 1.57 34.826 0.143 7.04 29.14 12.92
1/12/2021 11:30:00 PM 1.57 34.826 0.143 7.04 29 12.95
1/12/2021 11:45:00 PM 1.57 34.826 0.143 7.05 29.16 12.88
1/13/2021 12:00:00 AM 1.56 34.808 0.143 7.06 29.08 12.98
1/13/2021 12:15:00 AM 1.56 34.808 0.143 7.03 29.13 12.82
1/13/2021 12:30:00 AM 1.56 34.808 0.143 7.04 29.01 12.91
1/13/2021 12:45:00 AM 1.56 34.808 0.143 7.03 29.1 12.9
1/13/2021 1:00:00 AM 1.56 34.808 0.143 7.04 29.08 12.95
1/13/2021 1:15:00 AM 1.56 34.808 0.143 7.04 29.02 12.93
1/13/2021 1:30:00 AM 1.56 34.808 0.143 7.05 28.99 12.87
1/13/2021 1:45:00 AM 1.56 34.808 0.143 7.05 28.96 12.94
1/13/2021 2:00:00 AM 1.55 34.79 0.143 7.04 29.01 12.93
1/13/2021 2:15:00 AM 1.55 34.79 0.144 7.05 29.1 12.99
1/13/2021 2:30:00 AM 1.55 34.79 0.144 7.06 29.14 13
1/13/2021 2:45:00 AM 1.54 34.772 0.144 7.04 29.3 13
1/13/2021 3:00:00 AM 1.54 34.772 0.144 7.05 29.23 12.96
1/13/2021 3:15:00 AM 1.53 34.754 0.144 7.02 29.16 13.02
1/13/2021 3:30:00 AM 1.53 34.754 0.144 7.05 29.25 12.93
1/13/2021 3:45:00 AM 1.52 34.736 0.144 7.04 29.29 12.98
1/13/2021 4:00:00 AM 1.52 34.736 0.144 7.04 29.5 12.95
1/13/2021 4:15:00 AM 1.52 34.736 0.144 7.04 29.34 12.97
1/13/2021 4:30:00 AM 1.51 34.718 0.144 7.05 29.21 12.96
1/13/2021 4:45:00 AM 1.51 34.718 0.144 7.04 29.14 12.92
1/13/2021 5:00:00 AM 1.51 34.718 0.144 7.05 29.22 12.99
1/13/2021 5:15:00 AM 1.5 34.7 0.144 7.05 29.4 13
1/13/2021 5:30:00 AM 1.5 34.7 0.144 7.05 29.25 12.97
1/13/2021 5:45:00 AM 1.49 34.682 0.144 7.05 29.46 12.97
1/13/2021 6:00:00 AM 1.48 34.664 0.144 7.06 29.29 12.98
1/13/2021 6:15:00 AM 1.48 34.664 0.144 7.04 29.28 12.88
1/13/2021 6:30:00 AM 1.48 34.664 0.144 7.04 29.18 12.91
1/13/2021 6:45:00 AM 1.47 34.646 0.144 7.05 29.35 12.93
1/13/2021 7:00:00 AM 1.47 34.646 0.144 7.04 29.33 12.9
1/13/2021 7:15:00 AM 1.47 34.646 0.144 7.05 29.36 12.98
1/13/2021 7:30:00 AM 1.46 34.628 0.144 7.04 29.24 13
1/13/2021 7:45:00 AM 1.46 34.628 0.144 7.02 29.42 13.03
1/13/2021 8:00:00 AM 1.46 34.628 0.144 7.04 29.35 13
1/13/2021 8:15:00 AM 1.46 34.628 0.144 7.05 29.43 12.96
1/13/2021 8:30:00 AM 1.47 34.646 0.144 7.06 29.3 13.03
1/13/2021 8:45:00 AM 1.47 34.646 0.144 7.05 29.4 12.92
1/13/2021 9:00:00 AM 1.48 34.664 0.144 7.04 29.54 12.98
1/13/2021 9:15:00 AM 1.49 34.682 0.144 7.03 29.49 12.91
1/13/2021 9:30:00 AM 1.5 34.7 0.144 7.01 29.42 12.94
1/13/2021 9:45:00 AM 1.51 34.718 0.144 7.04 29.49 13
1/13/2021 10:00:00 AM 1.52 34.736 0.144 7.06 29.47 13.03
1/13/2021 10:15:00 AM 1.54 34.772 0.144 7.07 29.49 12.99
1/13/2021 10:30:00 AM 1.57 34.826 0.144 7.07 29.34 12.98
1/13/2021 10:45:00 AM 1.6 34.88 0.144 7.06 29.45 13.06
1/13/2021 11:00:00 AM 1.62 34.916 0.144 7.08 29.43 13.01
1/13/2021 11:15:00 AM 1.66 34.988 0.144 7.06 29.51 12.96
1/13/2021 11:30:00 AM 1.69 35.042 0.144 7.08 29.7 13.02
1/13/2021 11:45:00 AM 1.72 35.096 0.144 7.04 29.45 12.86
1/13/2021 12:00:00 PM 1.74 35.132 0.144 7.07 29.58 12.9
1/13/2021 12:15:00 PM 1.76 35.168 0.144 7.07 29.64 12.97
1/13/2021 12:30:00 PM 1.79 35.222 0.144 7.07 29.51 12.83
1/13/2021 12:45:00 PM 1.81 35.258 0.144 7.04 29.44 12.79
1/13/2021 1:00:00 PM 1.83 35.294 0.144 7.08 29.44 12.83
1/13/2021 1:15:00 PM 1.85 35.33 0.144 7.07 29.5 12.89
1/13/2021 1:30:00 PM 1.87 35.366 0.144 7.06 29.43 12.82
1/13/2021 1:45:00 PM 1.9 35.42 0.144 7.05 29.35 12.82
1/13/2021 2:00:00 PM 1.92 35.456 0.144 7.07 29.59 12.74
1/13/2021 2:15:00 PM 1.95 35.51 0.144 7.08 29.77 12.75
1/13/2021 2:30:00 PM 1.98 35.564 0.144 7.04 30.12 12.7
1/13/2021 2:45:00 PM 2 35.6 0.144 7.05 30.28 12.73
1/13/2021 3:00:00 PM 2.02 35.636 0.144 7.07 30.76 12.74
1/13/2021 3:15:00 PM 2.05 35.69 0.144 7.11 30.87 12.86
1/13/2021 3:30:00 PM 2.08 35.744 0.144 7.07 30.79 12.74
1/13/2021 3:45:00 PM 2.08 35.744 0.144 7.05 30.61 12.69
1/13/2021 4:00:00 PM 2.08 35.744 0.144 7.06 30.46 12.67
1/13/2021 4:15:00 PM 2.08 35.744 0.144 7.06 30.59 12.66
1/13/2021 4:30:00 PM 2.07 35.726 0.144 7.07 30.56 12.72
1/13/2021 4:45:00 PM 2.05 35.69 0.144 7.07 30.24 12.7
1/13/2021 5:00:00 PM 2.03 35.654 0.144 7.06 30.26 12.64
1/13/2021 5:15:00 PM 1.99 35.582 0.144 7.06 30.62 12.61
1/13/2021 5:30:00 PM 1.95 35.51 0.144 7.06 30.38 12.76
1/13/2021 5:45:00 PM 1.9 35.42 0.144 7.08 30.37 12.88
1/13/2021 6:00:00 PM 1.87 35.366 0.144 7.09 30.64 12.91
1/13/2021 6:15:00 PM 1.86 35.348 0.144 7.09 30.87 12.95
1/13/2021 6:30:00 PM 1.85 35.33 0.144 7.07 30.69 12.94
1/13/2021 6:45:00 PM 1.82 35.276 0.144 7.08 31.44 12.95
1/13/2021 7:00:00 PM 1.8 35.24 0.144 7.07 31.57 12.87
1/13/2021 7:15:00 PM 1.79 35.222 0.144 7.08 31.45 12.94
1/13/2021 7:30:00 PM 1.78 35.204 0.144 7.07 31.46 12.94
1/13/2021 7:45:00 PM 1.76 35.168 0.144 7.07 31.3 12.94
1/13/2021 8:00:00 PM 1.75 35.15 0.144 7.07 31.28 12.93
1/13/2021 8:15:00 PM 1.75 35.15 0.144 7.06 31.32 12.98
1/13/2021 8:30:00 PM 1.73 35.114 0.144 7.06 31.16 12.92
1/13/2021 8:45:00 PM 1.71 35.078 0.144 7.06 30.96 12.94
1/13/2021 9:00:00 PM 1.69 35.042 0.144 7.07 30.58 12.98
1/13/2021 9:15:00 PM 1.68 35.024 0.144 7.07 30.56 12.96
1/13/2021 9:30:00 PM 1.66 34.988 0.144 7.07 30.36 12.98
1/13/2021 9:45:00 PM 1.64 34.952 0.144 7.06 30.33 12.96
1/13/2021 10:00:00 PM 1.62 34.916 0.144 7.07 30.29 13
1/13/2021 10:15:00 PM 1.6 34.88 0.144 7.04 30.16 13
1/13/2021 10:30:00 PM 1.57 34.826 0.144 7.07 30.1 12.99
1/13/2021 10:45:00 PM 1.55 34.79 0.144 7.07 30.01 13.04
1/13/2021 11:00:00 PM 1.53 34.754 0.144 7.07 29.92 12.98
1/13/2021 11:15:00 PM 1.5 34.7 0.144 7.04 29.92 13.02
1/13/2021 11:30:00 PM 1.49 34.682 0.144 7.07 30.01 13.06
1/13/2021 11:45:00 PM 1.48 34.664 0.144 7.07 30.14 13.06
1/14/2021 12:00:00 AM 1.48 34.664 0.144 7.07 29.85 13.05
1/14/2021 12:15:00 AM 1.47 34.646 0.144 7.08 29.76 12.97
1/14/2021 12:30:00 AM 1.47 34.646 0.144 7.06 29.88 12.99
1/14/2021 12:45:00 AM 1.46 34.628 0.144 7.06 29.91 12.99
1/14/2021 1:00:00 AM 1.46 34.628 0.144 7.07 29.73 13
1/14/2021 1:15:00 AM 1.46 34.628 0.144 7.07 29.72 13.01
1/14/2021 1:30:00 AM 1.46 34.628 0.144 7.06 30.05 12.91
1/14/2021 1:45:00 AM 1.47 34.646 0.144 7.06 29.62 12.96
1/14/2021 2:00:00 AM 1.47 34.646 0.144 7.06 29.71 13.03
1/14/2021 2:15:00 AM 1.47 34.646 0.144 7.07 29.63 13.06
1/14/2021 2:30:00 AM 1.47 34.646 0.144 7.06 29.58 13.04
1/14/2021 2:45:00 AM 1.47 34.646 0.144 7.06 29.64 13.03
1/14/2021 3:00:00 AM 1.47 34.646 0.144 7.06 29.66 13.01
1/14/2021 3:15:00 AM 1.46 34.628 0.144 7.05 29.62 12.84
1/14/2021 3:30:00 AM 1.46 34.628 0.144 7.04 29.7 12.84
1/14/2021 3:45:00 AM 1.46 34.628 0.144 7.05 29.49 12.88
1/14/2021 4:00:00 AM 1.46 34.628 0.144 7.05 29.51 12.98
1/14/2021 4:15:00 AM 1.46 34.628 0.144 7.06 29.54 13.01
1/14/2021 4:30:00 AM 1.47 34.646 0.144 7.06 29.57 12.97
1/14/2021 4:45:00 AM 1.47 34.646 0.144 7.06 29.4 12.98
1/14/2021 5:00:00 AM 1.48 34.664 0.144 7.05 29.4 13
1/14/2021 5:15:00 AM 1.48 34.664 0.144 7.04 29.52 12.92
1/14/2021 5:30:00 AM 1.49 34.682 0.144 7.06 29.69 12.99
1/14/2021 5:45:00 AM 1.49 34.682 0.144 7.07 29.67 12.96
1/14/2021 6:00:00 AM 1.5 34.7 0.144 7.08 29.49 12.99
1/14/2021 6:15:00 AM 1.5 34.7 0.144 7.08 29.43 12.99
1/14/2021 6:30:00 AM 1.51 34.718 0.145 7.08 29.49 12.99
1/14/2021 6:45:00 AM 1.51 34.718 0.144 7.06 29.43 12.89
1/14/2021 7:00:00 AM 1.51 34.718 0.144 7.06 29.77 12.94
1/14/2021 7:15:00 AM 1.52 34.736 0.144 7.06 29.43 12.89
1/14/2021 7:30:00 AM 1.52 34.736 0.144 7.06 29.38 12.91
1/14/2021 7:45:00 AM 1.53 34.754 0.144 7.07 29.47 12.91
1/14/2021 8:00:00 AM 1.54 34.772 0.144 7.07 29.42 12.87
1/14/2021 8:15:00 AM 1.55 34.79 0.145 7.07 29.33 12.87
1/14/2021 8:30:00 AM 1.56 34.808 0.145 7.05 29.47 12.82
1/14/2021 8:45:00 AM 1.58 34.844 0.144 7.06 29.41 12.9
1/14/2021 9:00:00 AM 1.6 34.88 0.145 7.02 29.4 12.78
1/14/2021 9:15:00 AM 1.62 34.916 0.145 7.04 29.31 12.86
1/14/2021 9:30:00 AM 1.65 34.97 0.144 7.07 29.45 12.85
1/14/2021 9:45:00 AM 1.68 35.024 0.144 7.08 29.35 12.8
1/14/2021 10:00:00 AM 1.7 35.06 0.144 7.09 29.35 12.77
1/14/2021 10:15:00 AM 1.74 35.132 0.144 7.07 29.4 12.83
1/14/2021 10:30:00 AM 1.78 35.204 0.144 7.07 29.39 12.92
1/14/2021 10:45:00 AM 1.83 35.294 0.144 7.07 29.22 12.73
1/14/2021 11:00:00 AM 1.87 35.366 0.144 7.07 29.22 12.75
1/14/2021 11:15:00 AM 1.93 35.474 0.144 7.07 29.32 12.7
1/14/2021 11:30:00 AM 1.97 35.546 0.144 7.07 29.29 12.68
1/14/2021 11:45:00 AM 2.02 35.636 0.144 7.06 29.2 12.59
1/14/2021 12:00:00 PM 2.06 35.708 0.144 7.01 29.32 12.49
1/14/2021 12:15:00 PM 2.12 35.816 0.144 7.07 29.25 12.54
1/14/2021 12:30:00 PM 2.17 35.906 0.144 7.06 29.15 12.69
1/14/2021 12:45:00 PM 2.21 35.978 0.144 7.05 29.12 12.64
1/14/2021 1:00:00 PM 2.27 36.086 0.144 7.08 29.12 12.63
1/14/2021 1:15:00 PM 2.31 36.158 0.144 7.07 29.17 12.56
1/14/2021 1:30:00 PM 2.35 36.23 0.144 7.07 29.16 12.47
1/14/2021 1:45:00 PM 2.4 36.32 0.144 7.05 29.16 12.64
1/14/2021 2:00:00 PM 2.42 36.356 0.144 7.09 29.14 12.67
1/14/2021 2:15:00 PM 2.44 36.392 0.144 7.01 29.27 12.45
1/14/2021 2:30:00 PM 2.47 36.446 0.144 7.08 29.12 12.51
1/14/2021 2:45:00 PM 2.5 36.5 0.144 7.05 29.25 12.39
1/14/2021 3:00:00 PM 2.52 36.536 0.144 7.06 29.17 12.38
1/14/2021 3:15:00 PM 2.53 36.554 0.144 7.07 29.14 12.56
1/14/2021 3:30:00 PM 2.53 36.554 0.144 7.06 29.21 12.55
1/14/2021 3:45:00 PM 2.53 36.554 0.144 7.06 29.24 12.49
1/14/2021 4:00:00 PM 2.53 36.554 0.144 7.04 29.54 12.45
1/14/2021 4:15:00 PM 2.53 36.554 0.144 7.03 29.46 12.3
1/14/2021 4:30:00 PM 2.51 36.518 0.144 7.05 29.48 12.44
1/14/2021 4:45:00 PM 2.5 36.5 0.144 7.05 29.53 12.51
1/14/2021 5:00:00 PM 2.48 36.464 0.144 7.05 29.55 12.43
1/14/2021 5:15:00 PM 2.47 36.446 0.144 7.03 29.61 12.49
1/14/2021 5:30:00 PM 2.45 36.41 0.144 7.05 29.57 12.52
1/14/2021 5:45:00 PM 2.43 36.374 0.143 7.01 29.66 12.41
1/14/2021 6:00:00 PM 2.42 36.356 0.143 7.06 29.63 12.49
1/14/2021 6:15:00 PM 2.4 36.32 0.143 7.05 30.07 12.52
1/14/2021 6:30:00 PM 2.38 36.284 0.143 7.04 30.53 12.61
1/14/2021 6:45:00 PM 2.38 36.284 0.143 7.07 30.8 12.57
1/14/2021 7:00:00 PM 2.36 36.248 0.143 7.07 30.96 12.61
1/14/2021 7:15:00 PM 2.35 36.23 0.143 7.03 31.52 12.63
1/14/2021 7:30:00 PM 2.34 36.212 0.142 7.04 31.4 12.51
1/14/2021 7:45:00 PM 2.33 36.194 0.142 7.05 31.69 12.57
1/14/2021 8:00:00 PM 2.32 36.176 0.142 7.06 31.66 12.65
1/14/2021 8:15:00 PM 2.31 36.158 0.142 7.06 31.73 12.54
1/14/2021 8:30:00 PM 2.31 36.158 0.142 7.06 31.67 12.61
1/14/2021 8:45:00 PM 2.3 36.14 0.142 7.06 31.56 12.54
1/14/2021 9:00:00 PM 2.29 36.122 0.141 7.06 31.13 12.61
1/14/2021 9:15:00 PM 2.28 36.104 0.141 7.07 31.52 12.7
1/14/2021 9:30:00 PM 2.27 36.086 0.141 7.07 31.22 12.63
1/14/2021 9:45:00 PM 2.27 36.086 0.141 7.06 31.3 12.66
1/14/2021 10:00:00 PM 2.26 36.068 0.141 7.07 31.18 12.68
1/14/2021 10:15:00 PM 2.25 36.05 0.141 7.06 30.88 12.65
1/14/2021 10:30:00 PM 2.25 36.05 0.141 7.07 31.02 12.61
1/14/2021 10:45:00 PM 2.24 36.032 0.141 7.06 30.83 12.64
1/14/2021 11:00:00 PM 2.24 36.032 0.141 7.05 30.87 12.65
1/14/2021 11:15:00 PM 2.23 36.014 0.14 7.07 30.94 12.71
1/14/2021 11:30:00 PM 2.23 36.014 0.14 7.04 30.89 12.58
1/14/2021 11:45:00 PM 2.23 36.014 0.14 7.04 30.82 12.54
1/15/2021 12:00:00 AM 2.22 35.996 0.14 7.03 31.01 12.63
1/15/2021 12:15:00 AM 2.22 35.996 0.14 7.06 30.98 12.65
1/15/2021 12:30:00 AM 2.21 35.978 0.14 7.05 30.72 12.65
1/15/2021 12:45:00 AM 2.21 35.978 0.14 7.06 30.81 12.64
1/15/2021 1:00:00 AM 2.21 35.978 0.14 7.02 30.78 12.55
1/15/2021 1:15:00 AM 2.21 35.978 0.14 7.05 30.66 12.51
1/15/2021 1:30:00 AM 2.2 35.96 0.14 7.03 30.92 12.61
1/15/2021 1:45:00 AM 2.2 35.96 0.14 7.04 31.26 12.66
1/15/2021 2:00:00 AM 2.19 35.942 0.14 7.06 31.08 12.75
1/15/2021 2:15:00 AM 2.19 35.942 0.14 7.06 31.46 12.71
1/15/2021 2:30:00 AM 2.19 35.942 0.14 7.03 31.28 12.62
1/15/2021 2:45:00 AM 2.19 35.942 0.14 7 31.46 12.65
1/15/2021 3:00:00 AM 2.18 35.924 0.139 7.05 31.65 12.74
1/15/2021 3:15:00 AM 2.18 35.924 0.139 7.07 31.73 12.7
1/15/2021 3:30:00 AM 2.17 35.906 0.139 7.07 31.77 12.72
1/15/2021 3:45:00 AM 2.17 35.906 0.139 7.07 31.35 12.73
1/15/2021 4:00:00 AM 2.15 35.87 0.139 7.07 31.35 12.73
1/15/2021 4:15:00 AM 2.13 35.834 0.139 7.05 31.58 12.66
1/15/2021 4:30:00 AM 2.09 35.762 0.139 7.03 31.53 12.71
1/15/2021 4:45:00 AM 2.06 35.708 0.139 7.06 31.32 12.69
1/15/2021 5:00:00 AM 2.04 35.672 0.14 7.04 31.07 12.62
1/15/2021 5:15:00 AM 2 35.6 0.139 7.04 31.41 12.62
1/15/2021 5:30:00 AM 1.97 35.546 0.139 7.03 31.27 12.63
1/15/2021 5:45:00 AM 1.95 35.51 0.139 7.03 31.29 12.7
1/15/2021 6:00:00 AM 1.92 35.456 0.139 7.04 31.27 12.74
1/15/2021 6:15:00 AM 1.9 35.42 0.139 7.03 31.33 12.72
1/15/2021 6:30:00 AM 1.87 35.366 0.139 7.04 31.13 12.71
1/15/2021 6:45:00 AM 1.85 35.33 0.139 6.99 30.75 12.75
1/15/2021 7:00:00 AM 1.83 35.294 0.14 7.03 31.11 12.63
1/15/2021 7:15:00 AM 1.81 35.258 0.139 7.03 31.17 12.61
1/15/2021 7:30:00 AM 1.8 35.24 0.139 7.03 31.12 12.72
1/15/2021 7:45:00 AM 1.78 35.204 0.139 7.05 31.14 12.85
1/15/2021 8:00:00 AM 1.76 35.168 0.139 7.05 31.18 12.82
1/15/2021 8:15:00 AM 1.76 35.168 0.139 7.07 31.24 12.89
1/15/2021 8:30:00 AM 1.76 35.168 0.139 7.07 31.32 12.87
1/15/2021 8:45:00 AM 1.77 35.186 0.139 7.05 31.35 12.88
1/15/2021 9:00:00 AM 1.79 35.222 0.14 7.04 31.48 12.82
1/15/2021 9:15:00 AM 1.81 35.258 0.14 7.05 31.22 12.81
1/15/2021 9:30:00 AM 1.84 35.312 0.139 7.04 31.28 12.78
1/15/2021 9:45:00 AM 1.86 35.348 0.14 7.06 31.54 12.82
1/15/2021 10:00:00 AM 1.9 35.42 0.14 7.05 31.3 12.65
1/15/2021 10:15:00 AM 1.94 35.492 0.14 7.04 31.2 12.61
1/15/2021 10:30:00 AM 1.98 35.564 0.14 7.04 31.43 12.85
1/15/2021 10:45:00 AM 2.04 35.672 0.14 7.02 31.42 12.73
1/15/2021 11:00:00 AM 2.1 35.78 0.139 7.04 31.48 12.79
1/15/2021 11:15:00 AM 2.16 35.888 0.139 7.02 31.55 12.79
1/15/2021 11:30:00 AM 2.23 36.014 0.14 7.07 31.19 12.78
1/15/2021 11:45:00 AM 2.33 36.194 0.139 7.09 31.44 12.85
1/15/2021 12:00:00 PM 2.43 36.374 0.139 7.12 31.62 12.92
1/15/2021 12:15:00 PM 2.48 36.464 0.139 7.11 31.53 12.79
1/15/2021 12:30:00 PM 2.56 36.608 0.139 7.1 31.57 12.84
1/15/2021 12:45:00 PM 2.6 36.68 0.139 7.09 31.57 12.76
1/15/2021 1:00:00 PM 2.63 36.734 0.139 7.1 31.37 12.65
1/15/2021 1:15:00 PM 2.64 36.752 0.14 7.09 31.36 12.59
1/15/2021 1:30:00 PM 2.65 36.77 0.14 7.1 31.29 12.54
1/15/2021 1:45:00 PM 2.67 36.806 0.14 7.06 31.16 12.43
1/15/2021 2:00:00 PM 2.68 36.824 0.14 7.07 31.29 12.56
1/15/2021 2:15:00 PM 2.68 36.824 0.14 7.08 31.29 12.44
1/15/2021 2:30:00 PM 2.67 36.806 0.14 7.08 31.28 12.49
1/15/2021 2:45:00 PM 2.66 36.788 0.14 7.08 31.26 12.51
1/15/2021 3:00:00 PM 2.65 36.77 0.14 7.05 31.32 12.48
1/15/2021 3:15:00 PM 2.64 36.752 0.14 7.08 31.21 12.48
1/15/2021 3:30:00 PM 2.64 36.752 0.14 7.05 31.38 12.51
1/15/2021 3:45:00 PM 2.62 36.716 0.14 7.04 31.56 12.52
1/15/2021 4:00:00 PM 2.61 36.698 0.14 7.06 31.83 12.6
1/15/2021 4:15:00 PM 2.61 36.698 0.14 7.08 31.56 12.59
1/15/2021 4:30:00 PM 2.6 36.68 0.14 7.05 31.76 12.47
1/15/2021 4:45:00 PM 2.6 36.68 0.14 7.07 31.7 12.54
1/15/2021 5:00:00 PM 2.59 36.662 0.14 7.06 31.66 12.47
1/15/2021 5:15:00 PM 2.57 36.626 0.14 7.07 31.84 12.54
1/15/2021 5:30:00 PM 2.56 36.608 0.14 7.09 31.85 12.64
1/15/2021 5:45:00 PM 2.56 36.608 0.14 7.09 32.05 12.66
1/15/2021 6:00:00 PM 2.55 36.59 0.14 7.09 32.03 12.68
1/15/2021 6:15:00 PM 2.54 36.572 0.14 7.09 32.04 12.67
1/15/2021 6:30:00 PM 2.54 36.572 0.139 7.08 32.6 12.62
1/15/2021 6:45:00 PM 2.53 36.554 0.139 7.09 32.44 12.6
1/15/2021 7:00:00 PM 2.53 36.554 0.139 7.08 32.61 12.64
1/15/2021 7:15:00 PM 2.53 36.554 0.139 7.07 33.13 12.63
1/15/2021 7:30:00 PM 2.53 36.554 0.139 7.06 33.31 12.5
1/15/2021 7:45:00 PM 2.53 36.554 0.139 7.06 34.38 12.49
1/15/2021 8:00:00 PM 2.53 36.554 0.139 7.08 34.06 12.57
1/15/2021 8:15:00 PM 2.53 36.554 0.139 7.09 34.95 12.6
1/15/2021 8:30:00 PM 2.53 36.554 0.139 7.09 34.46 12.63
1/15/2021 8:45:00 PM 2.53 36.554 0.139 7.08 34.29 12.63
1/15/2021 9:00:00 PM 2.53 36.554 0.139 7.09 33.97 12.63
1/15/2021 9:15:00 PM 2.53 36.554 0.139 7.08 34.08 12.58
1/15/2021 9:30:00 PM 2.54 36.572 0.138 7.1 33.94 12.65
1/15/2021 9:45:00 PM 2.53 36.554 0.138 7.07 33.67 12.54
1/15/2021 10:00:00 PM 2.53 36.554 0.138 7.08 33.94 12.43
1/15/2021 10:15:00 PM 2.53 36.554 0.138 7.08 33.82 12.55
1/15/2021 10:30:00 PM 2.52 36.536 0.138 7.08 33.93 12.6
1/15/2021 10:45:00 PM 2.52 36.536 0.138 7.07 34.53 12.66
1/15/2021 11:00:00 PM 2.51 36.518 0.137 7.11 34.56 12.71
1/15/2021 11:15:00 PM 2.51 36.518 0.137 7.1 34.62 12.74
1/15/2021 11:30:00 PM 2.51 36.518 0.136 7.1 35.09 12.76
1/15/2021 11:45:00 PM 2.5 36.5 0.136 7.12 35.42 12.81
1/16/2021 12:00:00 AM 2.5 36.5 0.136 7.12 36.15 12.79
1/16/2021 12:15:00 AM 2.5 36.5 0.136 7.12 37.49 12.78
1/16/2021 12:30:00 AM 2.49 36.482 0.136 7.11 38.02 12.77
1/16/2021 12:45:00 AM 2.47 36.446 0.135 7.12 38.15 12.82
1/16/2021 1:00:00 AM 2.46 36.428 0.135 7.11 40.56 12.83
1/16/2021 1:15:00 AM 2.44 36.392 0.135 7.13 44.29 12.86
1/16/2021 1:30:00 AM 2.41 36.338 0.135 7.14 47.42 12.86
1/16/2021 1:45:00 AM 2.38 36.284 0.134 7.16 52.45 12.91
1/16/2021 2:00:00 AM 2.32 36.176 0.133 7.15 65.08 12.94
1/16/2021 2:15:00 AM 2.27 36.086 0.133 7.17 70.06 12.99
1/16/2021 2:30:00 AM 2.21 35.978 0.132 7.19 95.58 13.05
1/16/2021 2:45:00 AM 2.14 35.852 0.131 7.2 93.25 13.11
1/16/2021 3:00:00 AM 2.07 35.726 0.13 7.2 175.45 13.14
1/16/2021 3:15:00 AM 2.01 35.618 0.129 7.19 124.47 13.17
1/16/2021 3:30:00 AM 1.96 35.528 0.127 7.19 186.74 13.18
1/16/2021 3:45:00 AM 1.92 35.456 0.126 7.19 185.19 13.22
1/16/2021 4:00:00 AM 1.87 35.366 0.124 7.19 168.4 13.25
1/16/2021 4:15:00 AM 1.81 35.258 0.123 7.18 153.02 13.26
1/16/2021 4:30:00 AM 1.75 35.15 0.122 7.18 217.72 13.28
1/16/2021 4:45:00 AM 1.67 35.006 0.12 7.17 196.26 13.3
1/16/2021 5:00:00 AM 1.59 34.862 0.119 7.17 152.01 13.34
1/16/2021 5:15:00 AM 1.53 34.754 0.118 7.16 236.94 13.36
1/16/2021 5:30:00 AM 1.49 34.682 0.118 7.16 165.67 13.39
1/16/2021 5:45:00 AM 1.47 34.646 0.117 7.16 309.47 13.41
1/16/2021 6:00:00 AM 1.46 34.628 0.116 7.15 206.14 13.43
1/16/2021 6:15:00 AM 1.45 34.61 0.115 7.15 238.84 13.43
1/16/2021 6:30:00 AM 1.44 34.592 0.115 7.15 213.94 13.44
1/16/2021 6:45:00 AM 1.44 34.592 0.114 7.15 190.55 13.43
1/16/2021 7:00:00 AM 1.44 34.592 0.114 7.14 203.9 13.43
1/16/2021 7:15:00 AM 1.44 34.592 0.114 7.14 216.19 13.44
1/16/2021 7:30:00 AM 1.45 34.61 0.114 7.14 136.25 13.42
1/16/2021 7:45:00 AM 1.46 34.628 0.114 7.14 207.62 13.42
1/16/2021 8:00:00 AM 1.47 34.646 0.113 7.11 121.25 13.41
1/16/2021 8:15:00 AM 1.48 34.664 0.113 7.14 139.04 13.41
1/16/2021 8:30:00 AM 1.5 34.7 0.113 7.14 139.06 13.39
1/16/2021 8:45:00 AM 1.52 34.736 0.113 7.13 138.98 13.39
1/16/2021 9:00:00 AM 1.55 34.79 0.113 7.13 179.81 13.38
1/16/2021 9:15:00 AM 1.57 34.826 0.112 7.14 150.08 13.36
1/16/2021 9:30:00 AM 1.59 34.862 0.112 7.14 106.01 13.36
1/16/2021 9:45:00 AM 1.61 34.898 0.112 7.14 128.71 13.34
1/16/2021 10:00:00 AM 1.63 34.934 0.112 7.14 143.35 13.34
1/16/2021 10:15:00 AM 1.66 34.988 0.112 7.13 111.12 13.32
1/16/2021 10:30:00 AM 1.68 35.024 0.112 7.14 92.74 13.32
1/16/2021 10:45:00 AM 1.7 35.06 0.112 7.14 146.13 13.3
1/16/2021 11:00:00 AM 1.72 35.096 0.112 7.14 147.01 13.3
1/16/2021 11:15:00 AM 1.74 35.132 0.112 7.14 96.22 13.29
1/16/2021 11:30:00 AM 1.75 35.15 0.112 7.13 113.89 13.27
1/16/2021 11:45:00 AM 1.77 35.186 0.112 7.13 91.81 13.27
1/16/2021 12:00:00 PM 1.79 35.222 0.112 7.14 90.41 13.27
1/16/2021 12:15:00 PM 1.82 35.276 0.112 7.15 89.82 13.25
1/16/2021 12:30:00 PM 1.9 35.42 0.112 7.14 89.24 13.23
1/16/2021 12:45:00 PM 1.98 35.564 0.112 7.14 88.26 13.21
1/16/2021 1:00:00 PM 2.04 35.672 0.112 7.07 88.85 13.18
1/16/2021 1:15:00 PM 2.09 35.762 0.112 7.15 89.39 13.18
1/16/2021 1:30:00 PM 2.12 35.816 0.112 7.15 85.16 13.17
1/16/2021 1:45:00 PM 2.14 35.852 0.112 7.14 89.32 13.13
1/16/2021 2:00:00 PM 2.19 35.942 0.113 7.14 80.59 13.13
1/16/2021 2:15:00 PM 2.22 35.996 0.112 7.15 90.92 13.12
1/16/2021 2:30:00 PM 2.26 36.068 0.113 7.14 77.72 13.1
1/16/2021 2:45:00 PM 2.28 36.104 0.113 7.15 78.09 13.09
1/16/2021 3:00:00 PM 2.3 36.14 0.113 7.15 78.91 13.07
1/16/2021 3:15:00 PM 2.32 36.176 0.113 7.09 80.38 13.05
1/16/2021 3:30:00 PM 2.34 36.212 0.113 7.15 77.78 13.04
1/16/2021 3:45:00 PM 2.35 36.23 0.113 7.15 82.04 13.05
1/16/2021 4:00:00 PM 2.34 36.212 0.113 7.1 84.88 13.02
1/16/2021 4:15:00 PM 2.33 36.194 0.113 7.15 80.05 13.02
1/16/2021 4:30:00 PM 2.31 36.158 0.113 7.14 74.11 13.01
1/16/2021 4:45:00 PM 2.29 36.122 0.114 7.14 73.02 13.02
1/16/2021 5:00:00 PM 2.26 36.068 0.114 7.14 72.49 12.99
1/16/2021 5:15:00 PM 2.24 36.032 0.114 7.14 73.74 13.01
1/16/2021 5:30:00 PM 2.21 35.978 0.114 7.13 75.19 12.99
1/16/2021 5:45:00 PM 2.18 35.924 0.114 7.13 72.33 13
1/16/2021 6:00:00 PM 2.17 35.906 0.114 7.13 72.72 13
1/16/2021 6:15:00 PM 2.14 35.852 0.114 7.1 69.79 13.02
1/16/2021 6:30:00 PM 2.11 35.798 0.114 7.12 66.76 13.01
1/16/2021 6:45:00 PM 2.09 35.762 0.114 7.13 80.61 13.03
1/16/2021 7:00:00 PM 2.05 35.69 0.114 7.12 70.14 13.03
1/16/2021 7:15:00 PM 2.02 35.636 0.114 7.12 73.55 13.03
1/16/2021 7:30:00 PM 1.99 35.582 0.115 7.12 69.74 13.05
1/16/2021 7:45:00 PM 1.96 35.528 0.115 7.12 68.39 13.05
1/16/2021 8:00:00 PM 1.92 35.456 0.115 7.12 89.2 13.07
1/16/2021 8:15:00 PM 1.89 35.402 0.115 7.06 65.23 13.07
1/16/2021 8:30:00 PM 1.86 35.348 0.115 7.12 61.88 13.09
1/16/2021 8:45:00 PM 1.84 35.312 0.115 7.12 63.89 13.09
1/16/2021 9:00:00 PM 1.82 35.276 0.115 7.11 63.97 13.09
1/16/2021 9:15:00 PM 1.8 35.24 0.115 7.12 63.63 13.12
1/16/2021 9:30:00 PM 1.78 35.204 0.115 7.11 63.81 13.1
1/16/2021 9:45:00 PM 1.76 35.168 0.115 7.11 59.65 13.11
1/16/2021 10:00:00 PM 1.74 35.132 0.116 7.11 59.41 13.11
1/16/2021 10:15:00 PM 1.72 35.096 0.116 7.11 60.58 13.11
1/16/2021 10:30:00 PM 1.7 35.06 0.116 7.11 61.18 13.12
1/16/2021 10:45:00 PM 1.69 35.042 0.116 7.12 60.1 13.13
1/16/2021 11:00:00 PM 1.69 35.042 0.116 7.11 59.13 13.16
1/16/2021 11:15:00 PM 1.69 35.042 0.116 7.11 59.33 13.14
1/16/2021 11:30:00 PM 1.69 35.042 0.116 7.11 57.42 13.13
1/16/2021 11:45:00 PM 1.69 35.042 0.116 7.11 59.69 13.14
1/17/2021 12:00:00 AM 1.69 35.042 0.116 7.11 59.8 13.14
1/17/2021 12:15:00 AM 1.69 35.042 0.117 7.09 58.68 13.08
1/17/2021 12:30:00 AM 1.68 35.024 0.117 7.1 59.48 13.16
1/17/2021 12:45:00 AM 1.68 35.024 0.117 7.1 55.26 13.14
1/17/2021 1:00:00 AM 1.68 35.024 0.117 7.11 56.05 13.13
1/17/2021 1:15:00 AM 1.67 35.006 0.117 7.11 56.62 13.13
1/17/2021 1:30:00 AM 1.67 35.006 0.117 7.1 53.51 13.13
1/17/2021 1:45:00 AM 1.66 34.988 0.117 7.07 54.57 13.11
1/17/2021 2:00:00 AM 1.65 34.97 0.117 7.1 52.24 13.13
1/17/2021 2:15:00 AM 1.64 34.952 0.117 7.1 54.16 13.14
1/17/2021 2:30:00 AM 1.63 34.934 0.117 7.1 53.95 13.08
1/17/2021 2:45:00 AM 1.62 34.916 0.118 7.1 53.79 13.12
1/17/2021 3:00:00 AM 1.61 34.898 0.118 7.1 52.67 13.15
1/17/2021 3:15:00 AM 1.6 34.88 0.118 7.11 52.19 13.12
1/17/2021 3:30:00 AM 1.59 34.862 0.118 7.08 51.92 13.15
1/17/2021 3:45:00 AM 1.58 34.844 0.118 7.1 51.86 13.15
1/17/2021 4:00:00 AM 1.57 34.826 0.118 7.11 51.24 13.16
1/17/2021 4:15:00 AM 1.57 34.826 0.118 7.09 49.89 13.15
1/17/2021 4:30:00 AM 1.56 34.808 0.118 7.08 50.51 13.13
1/17/2021 4:45:00 AM 1.55 34.79 0.118 7.09 48.98 13.16
1/17/2021 5:00:00 AM 1.54 34.772 0.118 7.1 49.53 13.16
1/17/2021 5:15:00 AM 1.54 34.772 0.118 7.1 49.13 13.17
1/17/2021 5:30:00 AM 1.53 34.754 0.118 7.09 49.18 13.15
1/17/2021 5:45:00 AM 1.53 34.754 0.118 7.1 48.43 13.17
1/17/2021 6:00:00 AM 1.52 34.736 0.118 7.08 51.48 13.15
1/17/2021 6:15:00 AM 1.52 34.736 0.119 7.08 47.77 13.13
1/17/2021 6:30:00 AM 1.51 34.718 0.119 7.06 48.6 13.17
1/17/2021 6:45:00 AM 1.5 34.7 0.119 7.1 47.37 13.17
1/17/2021 7:00:00 AM 1.5 34.7 0.119 7.09 46.35 13.16
1/17/2021 7:15:00 AM 1.49 34.682 0.119 7.08 48.55 13.11
1/17/2021 7:30:00 AM 1.48 34.664 0.119 7.1 47.41 13.2
1/17/2021 7:45:00 AM 1.47 34.646 0.119 7.1 46.43 13.16
1/17/2021 8:00:00 AM 1.46 34.628 0.119 7.1 45.69 13.23
1/17/2021 8:15:00 AM 1.46 34.628 0.119 7.06 45.7 13.16
1/17/2021 8:30:00 AM 1.47 34.646 0.119 7.09 46.55 13.19
1/17/2021 8:45:00 AM 1.49 34.682 0.119 7.1 44.21 13.26
1/17/2021 9:00:00 AM 1.5 34.7 0.119 7.1 44.08 13.21
1/17/2021 9:15:00 AM 1.51 34.718 0.119 7.11 44.77 13.24
1/17/2021 9:30:00 AM 1.52 34.736 0.119 7.1 44.38 13.23
1/17/2021 9:45:00 AM 1.54 34.772 0.12 7.06 45.1 13.22
1/17/2021 10:00:00 AM 1.55 34.79 0.12 7.11 44.27 13.23
1/17/2021 10:15:00 AM 1.58 34.844 0.12 7.1 43.71 13.22
1/17/2021 10:30:00 AM 1.62 34.916 0.12 7.11 43.37 13.22
1/17/2021 10:45:00 AM 1.66 34.988 0.12 7.1 43.13 13.2
1/17/2021 11:00:00 AM 1.69 35.042 0.12 7.11 43.28 13.22
1/17/2021 11:15:00 AM 1.71 35.078 0.12 7.11 44.06 13.21
1/17/2021 11:30:00 AM 1.73 35.114 0.12 7.11 45.99 13.2
1/17/2021 11:45:00 AM 1.75 35.15 0.12 7.11 43.18 13.2
1/17/2021 12:00:00 PM 1.78 35.204 0.12 7.12 43.76 13.17
1/17/2021 12:15:00 PM 1.81 35.258 0.12 7.12 42.1 13.18
1/17/2021 12:30:00 PM 1.86 35.348 0.12 7.11 42.33 13.1
1/17/2021 12:45:00 PM 1.9 35.42 0.12 7.12 42.44 13.16
1/17/2021 1:00:00 PM 1.93 35.474 0.12 7.09 42.32 13.1
1/17/2021 1:15:00 PM 1.96 35.528 0.12 7.13 41.68 13.14
1/17/2021 1:30:00 PM 2 35.6 0.12 7.13 42.07 13.13
1/17/2021 1:45:00 PM 2.04 35.672 0.12 7.1 40.83 13.12
1/17/2021 2:00:00 PM 2.08 35.744 0.12 7.11 41.04 13.08
1/17/2021 2:15:00 PM 2.13 35.834 0.12 7.1 41.24 13.05
1/17/2021 2:30:00 PM 2.16 35.888 0.121 7.12 40.37 13.03
1/17/2021 2:45:00 PM 2.19 35.942 0.121 7.11 40.33 13.04
1/17/2021 3:00:00 PM 2.2 35.96 0.121 7.12 40.95 13.03
1/17/2021 3:15:00 PM 2.21 35.978 0.121 7.09 41.32 12.97
1/17/2021 3:30:00 PM 2.21 35.978 0.121 7.11 41.16 13.03
1/17/2021 3:45:00 PM 2.21 35.978 0.121 7.1 41.1 13.02
1/17/2021 4:00:00 PM 2.21 35.978 0.121 7.12 40.57 13
1/17/2021 4:15:00 PM 2.21 35.978 0.121 7.11 40.81 12.96
1/17/2021 4:30:00 PM 2.21 35.978 0.121 7.1 40.55 12.98
1/17/2021 4:45:00 PM 2.2 35.96 0.121 7.11 40.84 12.89
1/17/2021 5:00:00 PM 2.19 35.942 0.121 7.1 40.83 12.95
1/17/2021 5:15:00 PM 2.19 35.942 0.121 7.1 40.89 12.92
1/17/2021 5:30:00 PM 2.18 35.924 0.121 7.09 39.89 12.94
1/17/2021 5:45:00 PM 2.18 35.924 0.121 7.1 40.56 12.92
1/17/2021 6:00:00 PM 2.17 35.906 0.121 7.11 40.81 12.98
1/17/2021 6:15:00 PM 2.17 35.906 0.121 7.09 40.14 12.94
1/17/2021 6:30:00 PM 2.17 35.906 0.121 7.11 39.85 12.96
1/17/2021 6:45:00 PM 2.17 35.906 0.122 7.1 40.68 12.94
1/17/2021 7:00:00 PM 2.16 35.888 0.122 7.11 39.42 12.97
1/17/2021 7:15:00 PM 2.16 35.888 0.122 7.1 39.87 12.94
1/17/2021 7:30:00 PM 2.16 35.888 0.122 7.1 39.95 12.92
1/17/2021 7:45:00 PM 2.15 35.87 0.122 7.1 40.31 12.95
1/17/2021 8:00:00 PM 2.15 35.87 0.122 7.09 40.39 12.91
1/17/2021 8:15:00 PM 2.15 35.87 0.122 7.08 41.08 12.92
1/17/2021 8:30:00 PM 2.15 35.87 0.122 7.1 40.29 12.91
1/17/2021 8:45:00 PM 2.14 35.852 0.122 7.09 40.62 12.92
1/17/2021 9:00:00 PM 2.14 35.852 0.122 7.1 40.3 12.94
1/17/2021 9:15:00 PM 2.14 35.852 0.122 7.09 39.93 12.93
1/17/2021 9:30:00 PM 2.13 35.834 0.122 7.09 39.49 12.95
1/17/2021 9:45:00 PM 2.13 35.834 0.122 7.09 40.07 12.94
1/17/2021 10:00:00 PM 2.12 35.816 0.122 7.07 40.66 12.93
1/17/2021 10:15:00 PM 2.12 35.816 0.122 7.09 40.7 12.96
1/17/2021 10:30:00 PM 2.12 35.816 0.122 7.09 40.71 12.9
1/17/2021 10:45:00 PM 2.12 35.816 0.122 7.08 39.51 12.92
1/17/2021 11:00:00 PM 2.12 35.816 0.122 7.08 39.64 12.93
1/17/2021 11:15:00 PM 2.11 35.798 0.122 7.1 38.15 12.92
1/17/2021 11:30:00 PM 2.11 35.798 0.122 7.06 38.9 12.88
1/17/2021 11:45:00 PM 2.1 35.78 0.123 7.08 39.56 12.9
1/18/2021 12:00:00 AM 2.1 35.78 0.123 7.09 39.23 12.94
1/18/2021 12:15:00 AM 2.09 35.762 0.123 7.1 39.33 12.95
1/18/2021 12:30:00 AM 2.08 35.744 0.123 7.1 39.21 12.94
1/18/2021 12:45:00 AM 2.08 35.744 0.123 7.08 39.26 12.93
1/18/2021 1:00:00 AM 2.06 35.708 0.123 7.1 39.09 12.94
1/18/2021 1:15:00 AM 2.05 35.69 0.123 7.07 38.63 12.91
1/18/2021 1:30:00 AM 2.03 35.654 0.123 7.09 38.39 12.92
1/18/2021 1:45:00 AM 2.02 35.636 0.123 7.1 39.38 12.9
1/18/2021 2:00:00 AM 2 35.6 0.123 7.09 39.35 12.97
1/18/2021 2:15:00 AM 1.98 35.564 0.123 7.08 38.64 12.91
1/18/2021 2:30:00 AM 1.97 35.546 0.123 7.06 38.05 12.88
1/18/2021 2:45:00 AM 1.95 35.51 0.123 7.09 38.58 12.98
1/18/2021 3:00:00 AM 1.93 35.474 0.123 7.08 39.06 12.94
1/18/2021 3:15:00 AM 1.9 35.42 0.123 7.07 39.37 12.94
1/18/2021 3:30:00 AM 1.88 35.384 0.123 7.11 38.68 13
1/18/2021 3:45:00 AM 1.86 35.348 0.123 7.08 39.61 12.97
1/18/2021 4:00:00 AM 1.84 35.312 0.123 7.08 38.46 13.01
1/18/2021 4:15:00 AM 1.84 35.312 0.123 7.09 39.87 12.92
1/18/2021 4:30:00 AM 1.82 35.276 0.123 7.09 38.47 12.98
1/18/2021 4:45:00 AM 1.8 35.24 0.123 7.09 38.62 13
1/18/2021 5:00:00 AM 1.8 35.24 0.123 7.08 38.59 12.96
1/18/2021 5:15:00 AM 1.79 35.222 0.124 7.09 38.77 13
1/18/2021 5:30:00 AM 1.79 35.222 0.124 7.09 38.45 13.01
1/18/2021 5:45:00 AM 1.79 35.222 0.124 7.1 38.25 13.01
1/18/2021 6:00:00 AM 1.79 35.222 0.124 7.09 38.39 12.94
1/18/2021 6:15:00 AM 1.79 35.222 0.124 7.07 37.92 13
1/18/2021 6:30:00 AM 1.78 35.204 0.124 7.08 38.67 13.04
1/18/2021 6:45:00 AM 1.78 35.204 0.124 7.09 37.88 13.09
1/18/2021 7:00:00 AM 1.77 35.186 0.124 7.08 37.96 13.04
1/18/2021 7:15:00 AM 1.77 35.186 0.124 7.08 38.84 13.07
1/18/2021 7:30:00 AM 1.76 35.168 0.124 7.09 37.65 13.07
1/18/2021 7:45:00 AM 1.76 35.168 0.124 7.09 38.73 13.06
1/18/2021 8:00:00 AM 1.77 35.186 0.124 7.09 37.75 13.09
1/18/2021 8:15:00 AM 1.78 35.204 0.124 7.09 37.85 13.07
1/18/2021 8:30:00 AM 1.8 35.24 0.124 7.09 37.59 13.1
1/18/2021 8:45:00 AM 1.83 35.294 0.124 7.09 37.43 13.09
1/18/2021 9:00:00 AM 1.86 35.348 0.124 7.07 38.55 13.1
1/18/2021 9:15:00 AM 1.89 35.402 0.124 7.11 37.35 13.11
1/18/2021 9:30:00 AM 1.92 35.456 0.124 7.1 37.64 13.09
1/18/2021 9:45:00 AM 1.95 35.51 0.124 7.11 37.34 13.12
1/18/2021 10:00:00 AM 1.99 35.582 0.124 7.11 37.56 13.12
1/18/2021 10:15:00 AM 2.03 35.654 0.124 7.1 36.76 13.09
1/18/2021 10:30:00 AM 2.08 35.744 0.124 7.1 36.69 13.12
1/18/2021 10:45:00 AM 2.1 35.78 0.124 7.12 36.58 13.1
1/18/2021 11:00:00 AM 2.04 35.672 0.124 7.11 36.59 13.1
1/18/2021 11:15:00 AM 2.06 35.708 0.124 7.1 36.5 13.03
1/18/2021 11:30:00 AM 2.1 35.78 0.124 7.08 36.67 13.04
1/18/2021 11:45:00 AM 2.17 35.906 0.124 7.09 36.62 13.09
1/18/2021 12:00:00 PM 2.22 35.996 0.124 7.12 35.75 13.08
1/18/2021 12:15:00 PM 2.27 36.086 0.124 7.12 35.71 13.06
1/18/2021 12:30:00 PM 2.34 36.212 0.124 7.12 35.83 13.08
1/18/2021 12:45:00 PM 2.4 36.32 0.124 7.12 36.31 13.05
1/18/2021 1:00:00 PM 2.45 36.41 0.124 7.1 36.14 13.04
1/18/2021 1:15:00 PM 2.5 36.5 0.124 7.15 35.75 13.03
1/18/2021 1:30:00 PM 2.56 36.608 0.124 7.11 36.04 12.95
1/18/2021 1:45:00 PM 2.59 36.662 0.124 7.12 36.82 12.89
1/18/2021 2:00:00 PM 2.63 36.734 0.124 7.11 36.6 12.88
1/18/2021 2:15:00 PM 2.65 36.77 0.125 7.13 36.19 12.95
1/18/2021 2:30:00 PM 2.65 36.77 0.125 7.1 36.59 12.88
1/18/2021 2:45:00 PM 2.67 36.806 0.125 7.12 36.17 12.9
1/18/2021 3:00:00 PM 2.68 36.824 0.125 7.11 35.94 12.95
1/18/2021 3:15:00 PM 2.7 36.86 0.125 7.1 36.4 12.88
1/18/2021 3:30:00 PM 2.7 36.86 0.125 7.11 36.09 12.84
1/18/2021 3:45:00 PM 2.68 36.824 0.125 7.1 36.45 12.88
1/18/2021 4:00:00 PM 2.66 36.788 0.125 7.11 36.68 12.85
1/18/2021 4:15:00 PM 2.63 36.734 0.125 7.11 36.15 12.88
1/18/2021 4:30:00 PM 2.59 36.662 0.125 7.11 36.49 12.87
1/18/2021 4:45:00 PM 2.54 36.572 0.125 7.08 36.7 12.79
1/18/2021 5:00:00 PM 2.5 36.5 0.125 7.09 36.72 12.81
1/18/2021 5:15:00 PM 2.46 36.428 0.125 7.09 36.47 12.8
1/18/2021 5:30:00 PM 2.42 36.356 0.125 7.09 36.95 12.77
1/18/2021 5:45:00 PM 2.38 36.284 0.125 7.09 36.96 12.86
1/18/2021 6:00:00 PM 2.35 36.23 0.125 7.09 36.33 12.89
1/18/2021 6:15:00 PM 2.32 36.176 0.125 7.1 36.79 12.91
1/18/2021 6:30:00 PM 2.3 36.14 0.125 7.1 36.7 12.85
1/18/2021 6:45:00 PM 2.27 36.086 0.125 7.11 36.77 12.9
1/18/2021 7:00:00 PM 2.25 36.05 0.125 7.09 37.17 12.92
1/18/2021 7:15:00 PM 2.24 36.032 0.125 7.07 36.46 12.91
1/18/2021 7:30:00 PM 2.22 35.996 0.125 7.09 36.18 12.87
1/18/2021 7:45:00 PM 2.22 35.996 0.125 7.07 36.39 12.89
1/18/2021 8:00:00 PM 2.21 35.978 0.125 7.06 36.31 12.82
1/18/2021 8:15:00 PM 2.2 35.96 0.125 7.09 36.69 12.89
1/18/2021 8:30:00 PM 2.2 35.96 0.125 7.08 36.82 12.89
1/18/2021 8:45:00 PM 2.17 35.906 0.125 7.07 36.46 12.88
1/18/2021 9:00:00 PM 2.11 35.798 0.125 7.08 36.55 12.91
1/18/2021 9:15:00 PM 2.07 35.726 0.125 7.06 35.89 12.88
1/18/2021 9:30:00 PM 2.01 35.618 0.125 7.06 36.01 12.82
1/18/2021 9:45:00 PM 1.98 35.564 0.125 7.07 36.87 12.91
1/18/2021 10:00:00 PM 1.96 35.528 0.125 7.06 36.39 12.93
1/18/2021 10:15:00 PM 1.95 35.51 0.125 7.04 36.5 12.91
1/18/2021 10:30:00 PM 1.94 35.492 0.125 7.09 36.23 13
1/18/2021 10:45:00 PM 1.93 35.474 0.125 7.07 36.56 12.97
1/18/2021 11:00:00 PM 1.9 35.42 0.125 7.06 36.86 12.95
1/18/2021 11:15:00 PM 1.88 35.384 0.125 7.08 36.08 12.97
1/18/2021 11:30:00 PM 1.86 35.348 0.125 7.08 36.13 12.95
1/18/2021 11:45:00 PM 1.84 35.312 0.125 7.07 36.41 13.06
1/19/2021 12:00:00 AM 1.84 35.312 0.125 7.06 35.97 12.98
1/19/2021 12:15:00 AM 1.83 35.294 0.125 7.08 37.51 13.07
1/19/2021 12:30:00 AM 1.82 35.276 0.125 7.07 36.36 13.04
1/19/2021 12:45:00 AM 1.82 35.276 0.125 7.08 35.85 13.03
1/19/2021 1:00:00 AM 1.8 35.24 0.125 7.06 36.89 13.02
1/19/2021 1:15:00 AM 1.79 35.222 0.125 7.09 36.2 13.05
1/19/2021 1:30:00 AM 1.79 35.222 0.126 7.07 35.89 13.05
1/19/2021 1:45:00 AM 1.79 35.222 0.126 7.09 35.85 13.09
1/19/2021 2:00:00 AM 1.78 35.204 0.126 7.07 36.93 13.1
1/19/2021 2:15:00 AM 1.78 35.204 0.126 7.1 35.88 13.16
1/19/2021 2:30:00 AM 1.78 35.204 0.126 7.09 36.57 13.1
1/19/2021 2:45:00 AM 1.78 35.204 0.126 7.08 35.62 13.08
1/19/2021 3:00:00 AM 1.78 35.204 0.126 7.09 35.58 13.1
1/19/2021 3:15:00 AM 1.78 35.204 0.126 7.09 35.18 13.09
1/19/2021 3:30:00 AM 1.78 35.204 0.126 7.09 37.03 13.1
1/19/2021 3:45:00 AM 1.78 35.204 0.126 7.08 35.25 13.1
1/19/2021 4:00:00 AM 1.78 35.204 0.126 7.09 35.2 13.13
1/19/2021 4:15:00 AM 1.77 35.186 0.126 7.09 35.5 13.13
1/19/2021 4:30:00 AM 1.77 35.186 0.126 7.1 35.61 13.12
1/19/2021 4:45:00 AM 1.77 35.186 0.126 7.07 35.67 13.11
1/19/2021 5:00:00 AM 1.76 35.168 0.126 7.08 35.65 13.05
1/19/2021 5:15:00 AM 1.76 35.168 0.126 7.08 35.03 13.1
1/19/2021 5:30:00 AM 1.75 35.15 0.126 7.07 35.33 13.13
1/19/2021 5:45:00 AM 1.75 35.15 0.126 7.08 35.27 13.11
1/19/2021 6:00:00 AM 1.74 35.132 0.126 7.08 35.22 13.16
1/19/2021 6:15:00 AM 1.72 35.096 0.126 7.07 34.96 13.15
1/19/2021 6:30:00 AM 1.71 35.078 0.127 7.09 35.25 13.12
1/19/2021 6:45:00 AM 1.7 35.06 0.127 7.09 34.89 13.13
1/19/2021 7:00:00 AM 1.69 35.042 0.127 7.1 34.8 13.16
1/19/2021 7:15:00 AM 1.68 35.024 0.127 7.08 35.48 13.11
1/19/2021 7:30:00 AM 1.67 35.006 0.127 7.07 35.55 13.11
1/19/2021 7:45:00 AM 1.66 34.988 0.127 7.08 35.24 13.18
1/19/2021 8:00:00 AM 1.66 34.988 0.127 7.1 34.84 13.15
1/19/2021 8:15:00 AM 1.66 34.988 0.127 7.1 34.44 13.22
1/19/2021 8:30:00 AM 1.66 34.988 0.127 7.08 34.44 13.23
1/19/2021 8:45:00 AM 1.67 35.006 0.127 7.09 34.33 13.25
1/19/2021 9:00:00 AM 1.69 35.042 0.127 7.09 34.25 13.25
1/19/2021 9:15:00 AM 1.71 35.078 0.127 7.09 34.5 13.28
1/19/2021 9:30:00 AM 1.74 35.132 0.127 7.11 34.6 13.12
1/19/2021 9:45:00 AM 1.78 35.204 0.127 7.1 34.26 13.3
1/19/2021 10:00:00 AM 1.81 35.258 0.127 7.1 34.3 13.3
1/19/2021 10:15:00 AM 1.85 35.33 0.127 7.11 33.92 13.34
1/19/2021 10:30:00 AM 1.9 35.42 0.127 7.1 33.77 13.34
1/19/2021 10:45:00 AM 1.95 35.51 0.127 7.13 34.05 13.28
1/19/2021 11:00:00 AM 2 35.6 0.127 7.11 33.77 13.32
1/19/2021 11:15:00 AM 2.04 35.672 0.127 7.09 33.85 13.25
1/19/2021 11:30:00 AM 2.09 35.762 0.127 7.1 34.51 13.24
1/19/2021 11:45:00 AM 2.15 35.87 0.127 7.11 35.26 13.24
1/19/2021 12:00:00 PM 2.21 35.978 0.128 7.09 35.97 13.2
1/19/2021 12:15:00 PM 2.28 36.104 0.128 7.12 37.11 13.19
1/19/2021 12:30:00 PM 2.34 36.212 0.128 7.12 37.74 13.19
1/19/2021 12:45:00 PM 2.4 36.32 0.128 7.15 38.61 13.21
1/19/2021 1:00:00 PM 2.46 36.428 0.128 7.14 40.37 13.19
1/19/2021 1:15:00 PM 2.5 36.5 0.128 7.14 39.94 13.08
1/19/2021 1:30:00 PM 2.54 36.572 0.128 7.14 39.3 13.11
1/19/2021 1:45:00 PM 2.59 36.662 0.128 7.14 38.29 13.11
1/19/2021 2:00:00 PM 2.63 36.734 0.128 7.12 37.13 12.98
1/19/2021 2:15:00 PM 2.66 36.788 0.128 7.13 36.68 13.05
1/19/2021 2:30:00 PM 2.69 36.842 0.129 7.14 37.18 13.04
1/19/2021 2:45:00 PM 2.69 36.842 0.129 7.13 37.64 13
1/19/2021 3:00:00 PM 2.68 36.824 0.129 7.16 38.06 13.04
1/19/2021 3:15:00 PM 2.67 36.806 0.129 7.12 40.22 12.97
1/19/2021 3:30:00 PM 2.66 36.788 0.129 7.12 39.88 12.91
1/19/2021 3:45:00 PM 2.63 36.734 0.129 7.07 42.28 12.82
1/19/2021 4:00:00 PM 2.6 36.68 0.129 7.09 39.06 12.88
1/19/2021 4:15:00 PM 2.56 36.608 0.129 7.09 37.79 12.89
1/19/2021 4:30:00 PM 2.53 36.554 0.129 7.1 38.84 12.8
1/19/2021 4:45:00 PM 2.48 36.464 0.129 7.11 52.34 12.85
1/19/2021 5:00:00 PM 2.44 36.392 0.129 7.13 63.85 12.94
1/19/2021 5:15:00 PM 2.39 36.302 0.129 7.14 73.74 12.94
1/19/2021 5:30:00 PM 2.35 36.23 0.129 7.14 98.7 13
1/19/2021 5:45:00 PM 2.32 36.176 0.129 7.14 90.04 12.92
1/19/2021 6:00:00 PM 2.29 36.122 0.129 7.13 78.79 12.91
1/19/2021 6:15:00 PM 2.25 36.05 0.129 7.13 69.81 12.92
1/19/2021 6:30:00 PM 2.22 35.996 0.129 7.11 58.94 12.93
1/19/2021 6:45:00 PM 2.19 35.942 0.129 7.09 54.76 12.97
1/19/2021 7:00:00 PM 2.17 35.906 0.129 7.08 49.49 12.94
1/19/2021 7:15:00 PM 2.15 35.87 0.129 7.08 46.02 12.95
1/19/2021 7:30:00 PM 2.13 35.834 0.129 7.08 43.49 12.97
1/19/2021 7:45:00 PM 2.11 35.798 0.129 7.08 42.38 12.93
1/19/2021 8:00:00 PM 2.09 35.762 0.129 7.09 40.67 13
1/19/2021 8:15:00 PM 2.08 35.744 0.13 7.08 38.91 12.99
1/19/2021 8:30:00 PM 2.06 35.708 0.13 7.08 38.9 12.97
1/19/2021 8:45:00 PM 2.03 35.654 0.13 7.08 37.51 13.01
1/19/2021 9:00:00 PM 2.02 35.636 0.13 7.09 37.65 13.01
1/19/2021 9:15:00 PM 2 35.6 0.13 7.07 36.36 13.03
1/19/2021 9:30:00 PM 1.98 35.564 0.13 7.09 35.86 12.99
1/19/2021 9:45:00 PM 1.97 35.546 0.13 7.07 36.05 12.99
1/19/2021 10:00:00 PM 1.97 35.546 0.13 7.09 35.83 13.02
1/19/2021 10:15:00 PM 1.97 35.546 0.13 7.08 35.41 12.95
1/19/2021 10:30:00 PM 1.96 35.528 0.13 7.07 35.09 12.99
1/19/2021 10:45:00 PM 1.96 35.528 0.13 7.08 35.06 12.97
1/19/2021 11:00:00 PM 1.96 35.528 0.13 7.07 34.86 12.98
1/19/2021 11:15:00 PM 1.96 35.528 0.13 7.08 34.58 13.05
1/19/2021 11:30:00 PM 1.95 35.51 0.13 7.08 34.45 12.98
1/19/2021 11:45:00 PM 1.95 35.51 0.13 7.08 34.59 13
1/20/2021 12:00:00 AM 1.95 35.51 0.13 7.04 34.08 13.03
1/20/2021 12:15:00 AM 1.94 35.492 0.131 7.06 34.2 13
1/20/2021 12:30:00 AM 1.94 35.492 0.131 7.08 34.03 13.02
1/20/2021 12:45:00 AM 1.93 35.474 0.131 7.06 33.74 13.01
1/20/2021 1:00:00 AM 1.93 35.474 0.131 7.06 34.32 12.91
1/20/2021 1:15:00 AM 1.92 35.456 0.131 7.07 33.91 12.91
1/20/2021 1:30:00 AM 1.91 35.438 0.131 7.05 33.58 12.92
1/20/2021 1:45:00 AM 1.9 35.42 0.131 7.08 33.77 12.95
1/20/2021 2:00:00 AM 1.89 35.402 0.131 7.09 33.59 12.92
1/20/2021 2:15:00 AM 1.88 35.384 0.131 7.05 33.74 12.9
1/20/2021 2:30:00 AM 1.88 35.384 0.131 7.06 33.4 12.98
1/20/2021 2:45:00 AM 1.87 35.366 0.131 7.06 33.47 12.95
1/20/2021 3:00:00 AM 1.86 35.348 0.131 7.05 33.33 12.98
1/20/2021 3:15:00 AM 1.85 35.33 0.131 7.09 33.2 13.03
1/20/2021 3:30:00 AM 1.84 35.312 0.131 7.08 34.1 12.95
1/20/2021 3:45:00 AM 1.83 35.294 0.132 7.06 33.07 12.97
1/20/2021 4:00:00 AM 1.82 35.276 0.132 7.08 33.29 13.02
1/20/2021 4:15:00 AM 1.81 35.258 0.132 7.07 32.99 13
1/20/2021 4:30:00 AM 1.8 35.24 0.132 7.09 33.35 12.96
1/20/2021 4:45:00 AM 1.79 35.222 0.132 7.05 33.1 12.95
1/20/2021 5:00:00 AM 1.78 35.204 0.132 7.09 33.06 12.93
1/20/2021 5:15:00 AM 1.77 35.186 0.132 7.07 33.06 12.87
1/20/2021 5:30:00 AM 1.75 35.15 0.132 7.08 33.03 13.04
1/20/2021 5:45:00 AM 1.74 35.132 0.132 7.08 33.38 12.98
1/20/2021 6:00:00 AM 1.73 35.114 0.132 7.06 33.33 12.99
1/20/2021 6:15:00 AM 1.7 35.06 0.132 7.09 33.01 12.98
1/20/2021 6:30:00 AM 1.6 34.88 0.132 7.07 32.81 12.97
1/20/2021 6:45:00 AM 1.58 34.844 0.132 7.1 32.87 13.03
1/20/2021 7:00:00 AM 1.56 34.808 0.132 7.07 32.82 13.03
1/20/2021 7:15:00 AM 1.54 34.772 0.132 7.08 33.02 13.04
1/20/2021 7:30:00 AM 1.54 34.772 0.132 7.06 32.99 12.97
1/20/2021 7:45:00 AM 1.54 34.772 0.132 7.06 32.81 13.01
1/20/2021 8:00:00 AM 1.54 34.772 0.132 7.07 33.03 12.98
1/20/2021 8:15:00 AM 1.53 34.754 0.132 7.06 32.88 12.93
1/20/2021 8:30:00 AM 1.53 34.754 0.132 7.08 32.62 13.08
1/20/2021 8:45:00 AM 1.53 34.754 0.132 7.08 32.69 13.09
1/20/2021 9:00:00 AM 1.53 34.754 0.132 7.09 32.71 13.21
1/20/2021 9:15:00 AM 1.55 34.79 0.132 7.07 32.53 13.18
1/20/2021 9:30:00 AM 1.56 34.808 0.132 7.05 33.48 13.18
1/20/2021 9:45:00 AM 1.58 34.844 0.132 7.09 32.55 13.22
1/20/2021 10:00:00 AM 1.6 34.88 0.132 7.13 32.61 13.29
1/20/2021 10:15:00 AM 1.63 34.934 0.132 7.1 32.62 13.3
1/20/2021 10:30:00 AM 1.68 35.024 0.132 7.13 32.61 13.32
1/20/2021 10:45:00 AM 1.75 35.15 0.132 7.14 32.4 13.34
1/20/2021 11:00:00 AM 1.78 35.204 0.132 7.12 32.22 13.29
1/20/2021 11:15:00 AM 1.81 35.258 0.132 7.13 32.69 13.31
1/20/2021 11:30:00 AM 1.84 35.312 0.132 7.11 32.1 13.28
1/20/2021 11:45:00 AM 1.89 35.402 0.132 7.08 32.4 13.2
1/20/2021 12:00:00 PM 1.92 35.456 0.132 7.13 32.4 13.21
1/20/2021 12:15:00 PM 1.97 35.546 0.132 7.14 32.26 13.17
1/20/2021 12:30:00 PM 1.98 35.564 0.132 7.11 32 13.15
1/20/2021 12:45:00 PM 1.97 35.546 0.132 7.13 32.28 13.13
1/20/2021 1:00:00 PM 1.97 35.546 0.132 7.11 34.15 13.11
1/20/2021 1:15:00 PM 2 35.6 0.133 7.1 35.77 13.19
1/20/2021 1:30:00 PM 2.01 35.618 0.133 7.1 37.72 13.07
1/20/2021 1:45:00 PM 2.05 35.69 0.133 7.14 38.23 13.16
1/20/2021 2:00:00 PM 2.08 35.744 0.133 7.14 37.26 13.15
1/20/2021 2:15:00 PM 2.13 35.834 0.133 7.15 36.11 13.12
1/20/2021 2:30:00 PM 2.16 35.888 0.133 7.14 35.69 13.16
1/20/2021 2:45:00 PM 2.19 35.942 0.133 7.11 34.68 13.18
1/20/2021 3:00:00 PM 2.18 35.924 0.133 7.13 34.28 13.13
1/20/2021 3:15:00 PM 2.14 35.852 0.133 7.12 33.69 13.11
1/20/2021 3:30:00 PM 2.11 35.798 0.133 7.13 33.2 13.14
1/20/2021 3:45:00 PM 2.08 35.744 0.133 7.12 33.08 13.11
1/20/2021 4:00:00 PM 2.03 35.654 0.133 7.09 32.87 13.12
1/20/2021 4:15:00 PM 1.97 35.546 0.133 7.09 32.93 13.08
1/20/2021 4:30:00 PM 1.91 35.438 0.133 7.09 32.83 13.14
1/20/2021 4:45:00 PM 1.85 35.33 0.133 7.1 33.06 13.13
1/20/2021 5:00:00 PM 1.77 35.186 0.133 7.12 32.57 13.15
1/20/2021 5:15:00 PM 1.68 35.024 0.133 7.12 32.41 13.22
1/20/2021 5:30:00 PM 1.63 34.934 0.133 7.11 32.35 13.17
1/20/2021 5:45:00 PM 1.59 34.862 0.133 7.08 32.81 13.08
1/20/2021 6:00:00 PM 1.53 34.754 0.133 7.06 32.7 13.05
1/20/2021 6:15:00 PM 1.49 34.682 0.133 7.08 33 13.01
1/20/2021 6:30:00 PM 1.45 34.61 0.133 7.03 33.02 12.95
1/20/2021 6:45:00 PM 1.41 34.538 0.133 7.04 32.48 13.01
1/20/2021 7:00:00 PM 1.38 34.484 0.133 7.04 33.21 13
1/20/2021 7:15:00 PM 1.33 34.394 0.133 7.07 32.65 13.05
1/20/2021 7:30:00 PM 1.31 34.358 0.133 7.04 32.85 13.09
1/20/2021 7:45:00 PM 1.28 34.304 0.133 7.05 32.75 13.09
1/20/2021 8:00:00 PM 1.26 34.268 0.133 7.05 32.5 13.16
1/20/2021 8:15:00 PM 1.24 34.232 0.133 7.06 32.37 13.16
1/20/2021 8:30:00 PM 1.22 34.196 0.133 7.06 32.49 13.14
1/20/2021 8:45:00 PM 1.2 34.16 0.133 7.05 32.16 13.21
1/20/2021 9:00:00 PM 1.18 34.124 0.134 7.06 32.31 13.24
1/20/2021 9:15:00 PM 1.16 34.088 0.134 7.07 32.37 13.16
1/20/2021 9:30:00 PM 1.15 34.07 0.134 7.06 32.39 13.24
1/20/2021 9:45:00 PM 1.13 34.034 0.134 7.08 32.2 13.28
1/20/2021 10:00:00 PM 1.12 34.016 0.134 7.07 32.01 13.28
1/20/2021 10:15:00 PM 1.11 33.998 0.134 7.05 32.1 13.28
1/20/2021 10:30:00 PM 1.11 33.998 0.134 7.08 32.3 13.24
1/20/2021 10:45:00 PM 1.09 33.962 0.134 7.08 32.23 13.24
1/20/2021 11:00:00 PM 1.08 33.944 0.134 7.07 32.03 13.27
1/20/2021 11:15:00 PM 1.07 33.926 0.134 7.07 32.62 13.22
1/20/2021 11:30:00 PM 1.05 33.89 0.135 7.07 32.11 13.3
1/20/2021 11:45:00 PM 1.03 33.854 0.135 7.07 32.18 13.31
1/21/2021 12:00:00 AM 1 33.8 0.135 7.08 31.77 13.35
1/21/2021 12:15:00 AM 0.97 33.746 0.135 7.08 31.83 13.32
1/21/2021 12:30:00 AM 0.94 33.692 0.135 7.04 31.86 13.35
1/21/2021 12:45:00 AM 0.91 33.638 0.135 7.09 31.88 13.41
1/21/2021 1:00:00 AM 0.87 33.566 0.135 7.09 32.13 13.38
1/21/2021 1:15:00 AM 0.83 33.494 0.135 7.09 31.98 13.37
1/21/2021 1:30:00 AM 0.79 33.422 0.135 7.09 31.89 13.37
1/21/2021 1:45:00 AM 0.74 33.332 0.135 7.1 31.85 13.37
1/21/2021 2:00:00 AM 0.7 33.26 0.136 7.09 31.89 13.4
1/21/2021 2:15:00 AM 0.66 33.188 0.136 7.09 31.79 13.34
1/21/2021 2:30:00 AM 0.62 33.116 0.136 7.08 32.04 13.39
1/21/2021 2:45:00 AM 0.59 33.062 0.136 7.03 31.74 13.36
1/21/2021 3:00:00 AM 0.54 32.972 0.136 7.08 31.83 13.43
1/21/2021 3:15:00 AM 0.51 32.918 0.136 7.07 31.88 13.34
1/21/2021 3:30:00 AM 0.48 32.864 0.136 7.08 31.94 13.4
1/21/2021 3:45:00 AM 0.45 32.81 0.136 7.06 31.76 13.29
1/21/2021 4:00:00 AM 0.42 32.756 0.137 7.06 31.77 13.38
1/21/2021 4:15:00 AM 0.39 32.702 0.137 7.04 31.86 13.41
1/21/2021 4:30:00 AM 0.37 32.666 0.137 7.04 31.86 13.33
1/21/2021 4:45:00 AM 0.36 32.648 0.137 7.04 32.23 13.35
1/21/2021 5:00:00 AM 0.35 32.63 0.138 7.06 31.85 13.34
1/21/2021 5:15:00 AM 0.34 32.612 0.138 7.08 31.87 13.39
1/21/2021 5:30:00 AM 0.34 32.612 0.138 7.06 31.89 13.37
1/21/2021 5:45:00 AM 0.36 32.648 0.138 7.06 32.05 13.37
1/21/2021 6:00:00 AM 0.37 32.666 0.139 7.08 31.94 13.28
1/21/2021 6:15:00 AM 0.39 32.702 0.139 7.07 32.18 13.38
1/21/2021 6:30:00 AM 0.41 32.738 0.139 7.07 32.19 13.34
1/21/2021 6:45:00 AM 0.44 32.792 0.14 7.1 31.86 13.3
1/21/2021 7:00:00 AM 0.46 32.828 0.14 7.08 32.68 13.33
1/21/2021 7:15:00 AM 0.48 32.864 0.14 7.09 32.09 13.29
1/21/2021 7:30:00 AM 0.51 32.918 0.141 7.1 31.91 13.37
1/21/2021 7:45:00 AM 0.53 32.954 0.141 7.06 31.55 13.4
1/21/2021 8:00:00 AM 0.54 32.972 0.142 7.11 31.47 13.39
1/21/2021 8:15:00 AM 0.56 33.008 0.142 7.1 32.02 13.24
1/21/2021 8:30:00 AM 0.59 33.062 0.142 7.1 31.81 13.29
1/21/2021 8:45:00 AM 0.61 33.098 0.142 7.1 31.61 13.22
1/21/2021 9:00:00 AM 0.64 33.152 0.142 7.1 31.54 13.39
1/21/2021 9:15:00 AM 0.66 33.188 0.142 7.11 31.48 13.39
1/21/2021 9:30:00 AM 0.69 33.242 0.143 7.13 31.43 13.45
1/21/2021 9:45:00 AM 0.72 33.296 0.143 7.12 31.32 13.4
1/21/2021 10:00:00 AM 0.75 33.35 0.143 7.14 31.65 13.45
1/21/2021 10:15:00 AM 0.78 33.404 0.143 7.14 31.25 13.42
1/21/2021 10:30:00 AM 0.82 33.476 0.142 7.13 31.35 13.37
1/21/2021 10:45:00 AM 0.86 33.548 0.142 7.14 31.16 13.5
1/21/2021 11:00:00 AM 0.91 33.638 0.142 7.15 31.4 13.5
1/21/2021 11:15:00 AM 0.95 33.71 0.142 7.16 31.29 13.55
1/21/2021 11:30:00 AM 0.99 33.782 0.142 7.16 31.32 13.56
1/21/2021 11:45:00 AM 1.04 33.872 0.141 7.17 31.52 13.53
1/21/2021 12:00:00 PM 1.12 34.016 0.141 7.17 31.37 13.58
1/21/2021 12:15:00 PM 1.19 34.142 0.141 7.17 31.8 13.56
1/21/2021 12:30:00 PM 1.25 34.25 0.14 7.17 31.66 13.34
1/21/2021 12:45:00 PM 1.31 34.358 0.14 7.18 31.78 13.42
1/21/2021 1:00:00 PM 1.36 34.448 0.14 7.16 31.79 13.37
1/21/2021 1:15:00 PM 1.4 34.52 0.139 7.13 32.12 13.37
1/21/2021 1:30:00 PM 1.41 34.538 0.139 7.13 32.09 13.36
1/21/2021 1:45:00 PM 1.42 34.556 0.139 7.15 32.15 13.3
1/21/2021 2:00:00 PM 1.44 34.592 0.139 7.14 31.84 13.24
1/21/2021 2:15:00 PM 1.48 34.664 0.138 7.12 32.18 13.14
1/21/2021 2:30:00 PM 1.53 34.754 0.138 7.09 32.16 13.1
1/21/2021 2:45:00 PM 1.56 34.808 0.138 7.13 32.21 13.24
1/21/2021 3:00:00 PM 1.61 34.898 0.138 7.16 32.24 13.24
1/21/2021 3:15:00 PM 1.62 34.916 0.138 7.15 32.17 13.3
1/21/2021 3:30:00 PM 1.65 34.97 0.137 7.17 32.52 13.29
1/21/2021 3:45:00 PM 1.67 35.006 0.137 7.17 32.48 13.32
1/21/2021 4:00:00 PM 1.69 35.042 0.137 7.16 33.12 13.28
1/21/2021 4:15:00 PM 1.69 35.042 0.137 7.15 33.02 13.28
1/21/2021 4:30:00 PM 1.68 35.024 0.137 7.17 33.69 13.25
1/21/2021 4:45:00 PM 1.66 34.988 0.137 7.13 33.34 13.12
1/21/2021 5:00:00 PM 1.64 34.952 0.137 7.12 33.2 13.06
1/21/2021 5:15:00 PM 1.6 34.88 0.136 7.12 32.75 13.1
1/21/2021 5:30:00 PM 1.58 34.844 0.136 7.12 32.33 13.04
1/21/2021 5:45:00 PM 1.55 34.79 0.136 7.13 32.65 13.15
1/21/2021 6:00:00 PM 1.52 34.736 0.136 7.13 32.79 13.09
1/21/2021 6:15:00 PM 1.5 34.7 0.136 7.13 32.48 13.1
1/21/2021 6:30:00 PM 1.47 34.646 0.136 7.12 32.62 13.08
1/21/2021 6:45:00 PM 1.46 34.628 0.136 7.11 32.63 13.1
1/21/2021 7:00:00 PM 1.44 34.592 0.136 7.1 32.17 13.08
1/21/2021 7:15:00 PM 1.42 34.556 0.136 7.11 33.02 13.11
1/21/2021 7:30:00 PM 1.41 34.538 0.136 7.07 32.69 12.95
1/21/2021 7:45:00 PM 1.4 34.52 0.136 7.07 32.73 13
1/21/2021 8:00:00 PM 1.38 34.484 0.136 7.06 32.83 13
1/21/2021 8:15:00 PM 1.37 34.466 0.136 7.07 32.43 13.04
1/21/2021 8:30:00 PM 1.36 34.448 0.136 7.08 32.42 13
1/21/2021 8:45:00 PM 1.35 34.43 0.136 7.08 32.35 13
1/21/2021 9:00:00 PM 1.34 34.412 0.136 7.09 32.58 13.02
1/21/2021 9:15:00 PM 1.33 34.394 0.136 7.09 32.45 13.01
1/21/2021 9:30:00 PM 1.32 34.376 0.136 7.08 32.18 13.05
1/21/2021 9:45:00 PM 1.32 34.376 0.136 7.08 32.26 13.02
1/21/2021 10:00:00 PM 1.32 34.376 0.136 7.09 32.49 13
1/21/2021 10:15:00 PM 1.32 34.376 0.136 7.09 32.1 13.07
1/21/2021 10:30:00 PM 1.33 34.394 0.136 7.09 32.34 13.05
1/21/2021 10:45:00 PM 1.33 34.394 0.136 7.1 32.3 12.96
1/21/2021 11:00:00 PM 1.32 34.376 0.136 7.07 32.21 12.98
1/21/2021 11:15:00 PM 1.28 34.304 0.136 7.06 32.27 12.98
1/21/2021 11:30:00 PM 1.23 34.214 0.136 7.04 32.25 13.03
1/21/2021 11:45:00 PM 1.22 34.196 0.136 7.08 32.12 12.89
1/22/2021 12:00:00 AM 1.18 34.124 0.136 7.07 32.43 12.98
1/22/2021 12:15:00 AM 1.15 34.07 0.136 7.08 32.31 13
1/22/2021 12:30:00 AM 1.14 34.052 0.136 7.03 32.21 12.91
1/22/2021 12:45:00 AM 1.13 34.034 0.136 7.05 32.37 12.95
1/22/2021 1:00:00 AM 1.13 34.034 0.136 7.06 32.45 13
1/22/2021 1:15:00 AM 1.11 33.998 0.136 7.07 32.11 13.11
1/22/2021 1:30:00 AM 1.11 33.998 0.136 7.08 32.42 13.09
1/22/2021 1:45:00 AM 1.11 33.998 0.136 7.07 32.63 13.1
1/22/2021 2:00:00 AM 1.11 33.998 0.136 7.1 32.25 13.11
1/22/2021 2:15:00 AM 1.12 34.016 0.136 7.1 32.13 13.07
1/22/2021 2:30:00 AM 1.12 34.016 0.136 7.09 32 13.15
1/22/2021 2:45:00 AM 1.13 34.034 0.136 7.09 32.33 13.07
1/22/2021 3:00:00 AM 1.14 34.052 0.136 7.08 32.02 13.09
1/22/2021 3:15:00 AM 1.14 34.052 0.137 7.09 31.84 13.04
1/22/2021 3:30:00 AM 1.15 34.07 0.137 7.04 31.86 13.04
1/22/2021 3:45:00 AM 1.16 34.088 0.137 7.09 31.83 13.09
1/22/2021 4:00:00 AM 1.16 34.088 0.137 7.06 32.01 13.1
1/22/2021 4:15:00 AM 1.17 34.106 0.137 7.08 31.7 13.07
1/22/2021 4:30:00 AM 1.18 34.124 0.136 7.09 31.76 13.1
1/22/2021 4:45:00 AM 1.18 34.124 0.137 7.08 31.67 13
1/22/2021 5:00:00 AM 1.18 34.124 0.137 7.09 31.74 13.1
1/22/2021 5:15:00 AM 1.18 34.124 0.137 7.08 31.49 13.07
1/22/2021 5:30:00 AM 1.17 34.106 0.137 7.09 31.42 13.1
1/22/2021 5:45:00 AM 1.16 34.088 0.137 7.08 31.68 13.11
1/22/2021 6:00:00 AM 1.15 34.07 0.137 7.09 32.08 13.08
1/22/2021 6:15:00 AM 1.15 34.07 0.137 7.08 31.91 13.09
1/22/2021 6:30:00 AM 1.15 34.07 0.137 7.09 31.54 13.13
1/22/2021 6:45:00 AM 1.15 34.07 0.137 7.1 31.3 13.09
1/22/2021 7:00:00 AM 1.14 34.052 0.137 7.09 31.44 13.11
1/22/2021 7:15:00 AM 1.14 34.052 0.137 7.09 31.57 13.05
1/22/2021 7:30:00 AM 1.14 34.052 0.137 7.09 31.38 13.08
1/22/2021 7:45:00 AM 1.14 34.052 0.137 7.09 31.57 13.08
1/22/2021 8:00:00 AM 1.15 34.07 0.137 7.09 31.73 13.19
1/22/2021 8:15:00 AM 1.16 34.088 0.137 7.06 31.75 13.23
1/22/2021 8:30:00 AM 1.17 34.106 0.137 7.12 31.6 13.25
1/22/2021 8:45:00 AM 1.19 34.142 0.137 7.07 31.52 13.25
1/22/2021 9:00:00 AM 1.21 34.178 0.137 7.09 31.68 13.3
1/22/2021 9:15:00 AM 1.24 34.232 0.137 7.09 31.56 13.24
1/22/2021 9:30:00 AM 1.27 34.286 0.137 7.12 31.47 13.28
1/22/2021 9:45:00 AM 1.31 34.358 0.137 7.06 31.35 13.27
1/22/2021 10:00:00 AM 1.35 34.43 0.137 7.13 31.59 13.3
1/22/2021 10:15:00 AM 1.4 34.52 0.137 7.16 31.43 13.37
1/22/2021 10:30:00 AM 1.44 34.592 0.137 7.14 31.36 13.33
1/22/2021 10:45:00 AM 1.48 34.664 0.137 7.15 31.34 13.31
1/22/2021 11:00:00 AM 1.53 34.754 0.137 7.14 31.43 13.32
1/22/2021 11:15:00 AM 1.56 34.808 0.137 7.16 31.36 13.33
1/22/2021 11:30:00 AM 1.6 34.88 0.137 7.16 31.61 13.26
1/22/2021 11:45:00 AM 1.65 34.97 0.137 7.1 31.23 13.28
1/22/2021 12:00:00 PM 1.68 35.024 0.137 7.15 31.23 13.28
1/22/2021 12:15:00 PM 1.73 35.114 0.137 7.17 31.33 13.25
1/22/2021 12:30:00 PM 1.78 35.204 0.137 7.14 31.52 13.18
1/22/2021 12:45:00 PM 1.83 35.294 0.137 7.13 31.41 13.19
1/22/2021 1:00:00 PM 1.87 35.366 0.137 7.14 31.26 13.16
1/22/2021 1:15:00 PM 1.93 35.474 0.137 7.16 31.09 13.1
1/22/2021 1:30:00 PM 1.99 35.582 0.137 7.16 31.19 13.13
1/22/2021 1:45:00 PM 1.99 35.582 0.137 7.15 31.23 13.06
1/22/2021 2:00:00 PM 1.97 35.546 0.136 7.13 31.34 13

These are provisional data and have not been subject to a quality assurance process, but rather are the raw data reported by the instrument.
H: value is above sensor operating range
L: value is below sensor operating range
Offline: station is not reporting data
NC: parameter is not collected at site

Data Availability & Limitations

Uncertainty and potential for error can be associated with environmental monitoring data. Provisional data have not been subject to a quality assurance process, but rather are the raw data reported by the instrument. Data users are cautioned to consider carefully the provisional nature of the information before using it for decisions that concern personal or public safety or the conduct of business that involves substantial monetary or operational consequences.

Approved data are currently available by request by emailing: srbc@srbc.net. Approved data have been subject to a quality assurance process to correct for equipment or fouling drift. Data recorded during equipment malfunctions have been removed.

View Historical Stations that have been discontinued.